createdAt,value
2018-12-21T00:01:28.172Z,1.80
2018-12-21T00:04:07.014Z,2.57
2018-12-21T00:06:44.498Z,1.43
2018-12-21T00:09:23.603Z,2.07
2018-12-21T00:12:03.305Z,2.00
2018-12-21T00:14:38.828Z,2.40
2018-12-21T00:17:17.523Z,1.93
2018-12-21T00:19:50.398Z,1.60
2018-12-21T00:22:29.402Z,1.90
2018-12-21T00:25:04.659Z,2.00
2018-12-21T00:27:42.147Z,1.60
2018-12-21T00:30:22.622Z,1.30
2018-12-21T00:33:07.045Z,1.60
2018-12-21T00:35:51.963Z,1.77
2018-12-21T00:38:26.506Z,1.63
2018-12-21T00:41:13.203Z,1.57
2018-12-21T00:43:58.850Z,1.73
2018-12-21T00:46:45.502Z,1.70
2018-12-21T00:49:18.615Z,1.50
2018-12-21T00:51:58.067Z,2.07
2018-12-21T00:54:33.665Z,1.40
2018-12-21T00:57:09.338Z,1.87
2018-12-21T00:59:49.854Z,1.90
2018-12-21T01:02:28.629Z,1.70
2018-12-21T01:05:04.026Z,1.67
2018-12-21T01:07:42.529Z,1.40
2018-12-21T01:10:17.418Z,1.40
2018-12-21T01:13:00.379Z,2.03
2018-12-21T01:15:41.601Z,2.17
2018-12-21T01:18:20.220Z,1.60
2018-12-21T01:20:55.306Z,2.00
2018-12-21T01:23:30.532Z,1.67
2018-12-21T01:26:08.171Z,1.50
2018-12-21T01:28:45.519Z,1.30
2018-12-21T01:31:24.534Z,2.20
2018-12-21T01:34:03.951Z,1.93
2018-12-21T01:36:42.655Z,1.97
2018-12-21T01:39:18.252Z,2.47
2018-12-21T01:41:53.126Z,1.07
2018-12-21T01:44:29.744Z,1.73
2018-12-21T01:47:06.007Z,1.47
2018-12-21T01:49:48.443Z,2.00
2018-12-21T01:52:27.239Z,1.60
2018-12-21T01:55:06.278Z,1.20
2018-12-21T01:57:44.892Z,1.53
2018-12-21T02:00:26.603Z,1.40
2018-12-21T02:03:08.040Z,2.00
2018-12-21T02:05:45.563Z,1.27
2018-12-21T02:08:22.759Z,1.57
2018-12-21T02:11:01.367Z,1.40
2018-12-21T02:13:34.661Z,1.30
2018-12-21T02:16:09.206Z,1.00
2018-12-21T02:18:44.630Z,1.50
2018-12-21T02:21:22.021Z,1.27
2018-12-21T02:24:01.101Z,1.50
2018-12-21T02:26:39.786Z,1.47
2018-12-21T02:29:16.257Z,1.43
2018-12-21T02:31:55.549Z,0.63
2018-12-21T02:34:24.678Z,0.90
2018-12-21T02:37:00.186Z,1.20
2018-12-21T02:39:33.068Z,1.37
2018-12-21T02:42:07.668Z,1.40
2018-12-21T02:44:43.292Z,1.10
2018-12-21T02:47:22.329Z,1.27
2018-12-21T02:49:57.616Z,1.03
2018-12-21T02:52:33.029Z,1.30
2018-12-21T02:55:10.558Z,1.80
2018-12-21T02:57:49.808Z,1.43
2018-12-21T03:00:27.009Z,1.17
2018-12-21T03:03:02.356Z,1.27
2018-12-21T03:05:37.566Z,1.33
2018-12-21T03:08:16.998Z,1.20
2018-12-21T03:10:57.283Z,1.47
2018-12-21T03:13:36.551Z,1.70
2018-12-21T03:16:15.827Z,1.43
2018-12-21T03:18:53.342Z,1.10
2018-12-21T03:21:30.843Z,0.80
2018-12-21T03:24:10.159Z,1.20
2018-12-21T03:26:48.511Z,1.40
2018-12-21T03:29:28.018Z,1.43
2018-12-21T03:32:06.979Z,1.40
2018-12-21T03:34:46.120Z,1.23
2018-12-21T03:37:25.494Z,1.30
2018-12-21T03:40:07.091Z,1.03
2018-12-21T03:42:45.706Z,1.20
2018-12-21T03:45:27.209Z,1.50
2018-12-21T03:48:05.887Z,0.90
2018-12-21T03:50:47.499Z,1.10
2018-12-21T03:53:28.544Z,0.93
2018-12-21T03:56:03.600Z,1.07
2018-12-21T03:58:40.689Z,1.43
2018-12-21T04:01:15.751Z,1.30
2018-12-21T04:03:52.862Z,1.20
2018-12-21T04:06:30.383Z,0.90
2018-12-21T04:09:09.594Z,0.97
2018-12-21T04:11:46.091Z,1.13
2018-12-21T04:14:21.333Z,1.03
2018-12-21T04:17:00.660Z,1.27
2018-12-21T04:19:29.914Z,1.43
2018-12-21T04:22:02.666Z,1.03
2018-12-21T04:24:37.289Z,1.50
2018-12-21T04:27:16.422Z,0.97
2018-12-21T04:29:53.698Z,1.50
2018-12-21T04:32:33.097Z,1.53
2018-12-21T04:35:12.100Z,1.67
2018-12-21T04:37:51.285Z,1.30
2018-12-21T04:40:30.541Z,1.47
2018-12-21T04:43:06.294Z,1.20
2018-12-21T04:45:42.151Z,1.20
2018-12-21T04:48:21.351Z,1.40
2018-12-21T04:51:00.822Z,1.20
2018-12-21T04:53:40.033Z,1.57
2018-12-21T04:56:19.513Z,1.43
2018-12-21T04:58:58.861Z,1.33
2018-12-21T05:01:38.491Z,1.20
2018-12-21T05:04:19.828Z,1.23
2018-12-21T05:06:57.310Z,1.37
2018-12-21T05:09:36.253Z,1.37
2018-12-21T05:12:15.690Z,0.93
2018-12-21T05:14:51.019Z,0.90
2018-12-21T05:17:23.788Z,1.23
2018-12-21T05:19:58.627Z,1.10
2018-12-21T05:22:31.510Z,1.50
2018-12-21T05:25:10.717Z,1.20
2018-12-21T05:27:49.491Z,1.50
2018-12-21T05:30:28.851Z,1.57
2018-12-21T05:33:07.983Z,1.17
2018-12-21T05:35:47.162Z,1.63
2018-12-21T05:38:24.634Z,1.43
2018-12-21T05:41:03.814Z,1.40
2018-12-21T05:43:42.948Z,1.30
2018-12-21T05:46:18.358Z,0.87
2018-12-21T05:48:51.251Z,1.10
2018-12-21T05:51:27.997Z,0.93
2018-12-21T05:54:07.336Z,0.97
2018-12-21T05:56:48.795Z,0.80
2018-12-21T05:59:23.397Z,1.37
2018-12-21T06:02:05.534Z,1.10
2018-12-21T06:04:47.550Z,1.27
2018-12-21T06:07:28.408Z,1.23
2018-12-21T06:10:08.186Z,1.30
2018-12-21T06:12:43.363Z,1.67
2018-12-21T06:15:20.610Z,1.27
2018-12-21T06:17:56.034Z,1.03
2018-12-21T06:20:35.252Z,1.00
2018-12-21T06:23:17.667Z,1.00
2018-12-21T06:25:56.416Z,1.37
2018-12-21T06:28:31.544Z,0.90
2018-12-21T06:31:09.039Z,0.87
2018-12-21T06:33:46.427Z,1.20
2018-12-21T06:36:23.875Z,1.63
2018-12-21T06:39:05.297Z,0.90
2018-12-21T06:41:38.158Z,1.20
2018-12-21T06:44:16.828Z,0.90
2018-12-21T06:46:56.010Z,1.00
2018-12-21T06:49:35.412Z,1.20
2018-12-21T06:52:14.870Z,1.40
2018-12-21T06:54:50.059Z,1.30
2018-12-21T06:57:28.673Z,0.87
2018-12-21T07:00:08.369Z,0.70
2018-12-21T07:02:47.447Z,0.90
2018-12-21T07:05:26.853Z,0.90
2018-12-21T07:08:06.165Z,1.07
2018-12-21T07:10:41.280Z,1.40
2018-12-21T07:13:20.557Z,2.17
2018-12-21T07:16:00.412Z,1.30
2018-12-21T07:18:39.649Z,0.80
2018-12-21T07:21:18.442Z,0.90
2018-12-21T07:23:53.888Z,1.40
2018-12-21T07:26:33.058Z,1.50
2018-12-21T07:29:08.579Z,1.30
2018-12-21T07:31:47.817Z,1.10
2018-12-21T07:34:27.046Z,1.50
2018-12-21T07:37:02.218Z,1.23
2018-12-21T07:39:37.380Z,1.60
2018-12-21T07:42:16.620Z,1.70
2018-12-21T07:44:59.041Z,1.53
2018-12-21T07:47:33.827Z,1.70
2018-12-21T07:50:05.938Z,1.10
2018-12-21T07:52:41.345Z,1.50
2018-12-21T07:55:16.037Z,1.33
2018-12-21T07:57:58.655Z,1.37
2018-12-21T08:00:39.986Z,1.83
2018-12-21T08:03:14.708Z,1.60
2018-12-21T08:05:53.875Z,1.90
2018-12-21T08:08:29.689Z,1.33
2018-12-21T08:11:08.740Z,1.13
2018-12-21T08:13:48.127Z,0.80
2018-12-21T08:16:27.212Z,1.30
2018-12-21T08:19:09.924Z,1.83
2018-12-21T08:21:44.705Z,1.27
2018-12-21T08:24:27.418Z,1.30
2018-12-21T08:27:02.338Z,1.40
2018-12-21T08:29:37.824Z,1.93
2018-12-21T08:32:19.406Z,1.30
2018-12-21T08:35:02.683Z,1.20
2018-12-21T08:37:37.702Z,1.40
2018-12-21T08:40:15.110Z,1.50
2018-12-21T08:42:54.094Z,1.10
2018-12-21T08:45:23.266Z,1.40
2018-12-21T08:47:58.633Z,1.00
2018-12-21T08:50:33.797Z,1.07
2018-12-21T08:53:09.005Z,1.27
2018-12-21T08:55:44.286Z,1.13
2018-12-21T08:58:23.378Z,1.20
2018-12-21T09:01:02.635Z,1.23
2018-12-21T09:03:38.178Z,1.80
2018-12-21T09:06:18.481Z,1.43
2018-12-21T09:08:53.905Z,1.20
2018-12-21T09:11:27.064Z,1.97
2018-12-21T09:14:01.774Z,2.07
2018-12-21T09:16:40.930Z,2.90
2018-12-21T09:19:23.418Z,1.00
2018-12-21T09:22:00.010Z,2.50
2018-12-21T09:24:33.709Z,1.93
2018-12-21T09:27:12.408Z,2.57
2018-12-21T09:29:47.976Z,2.40
2018-12-21T09:32:22.803Z,1.10
2018-12-21T09:35:02.086Z,1.70
2018-12-21T09:37:34.960Z,1.10
2018-12-21T09:40:10.817Z,1.90
2018-12-21T09:42:48.268Z,2.23
2018-12-21T09:45:30.855Z,1.27
2018-12-21T09:48:08.555Z,1.60
2018-12-21T09:50:47.790Z,1.50
2018-12-21T09:53:23.219Z,1.10
2018-12-21T09:56:02.283Z,1.10
2018-12-21T09:58:41.557Z,2.27
2018-12-21T10:01:20.676Z,1.60
2018-12-21T10:03:58.274Z,1.50
2018-12-21T10:06:37.471Z,1.50
2018-12-21T10:09:16.532Z,1.20
2018-12-21T10:11:51.894Z,2.40
2018-12-21T10:14:29.305Z,2.33
2018-12-21T10:17:08.254Z,1.00
2018-12-21T10:19:43.447Z,1.53
2018-12-21T10:22:22.591Z,2.00
2018-12-21T10:25:04.175Z,1.70
2018-12-21T10:27:38.772Z,1.40
2018-12-21T10:30:20.817Z,1.67
2018-12-21T10:32:59.682Z,1.80
2018-12-21T10:35:38.897Z,1.77
2018-12-21T10:38:18.199Z,1.10
2018-12-21T10:40:59.633Z,1.10
2018-12-21T10:43:38.226Z,1.40
2018-12-21T10:46:13.529Z,1.20
2018-12-21T10:48:52.927Z,1.17
2018-12-21T10:51:32.524Z,0.70
2018-12-21T10:54:11.390Z,1.23
2018-12-21T10:56:50.618Z,1.10
2018-12-21T10:59:26.254Z,1.40
2018-12-21T11:02:08.601Z,1.10
2018-12-21T11:04:48.403Z,1.47
2018-12-21T11:07:23.608Z,1.53
2018-12-21T11:10:03.527Z,1.27
2018-12-21T11:12:43.068Z,1.63
2018-12-21T11:15:24.772Z,1.80
2018-12-21T11:17:59.623Z,1.20
2018-12-21T11:20:35.035Z,0.67
2018-12-21T11:23:16.882Z,0.93
2018-12-21T11:25:52.112Z,1.10
2018-12-21T11:28:31.051Z,1.60
2018-12-21T11:31:13.618Z,1.50
2018-12-21T11:33:48.394Z,1.80
2018-12-21T11:36:27.726Z,1.23
2018-12-21T11:39:07.031Z,0.77
2018-12-21T11:41:42.641Z,1.47
2018-12-21T11:44:17.658Z,1.27
2018-12-21T11:46:56.786Z,0.97
2018-12-21T11:49:40.378Z,1.33
2018-12-21T11:52:19.368Z,1.70
2018-12-21T11:54:58.996Z,1.10
2018-12-21T11:57:38.049Z,1.40
2018-12-21T12:00:11.430Z,1.27
2018-12-21T12:02:44.288Z,1.37
2018-12-21T12:05:23.395Z,1.30
2018-12-21T12:08:02.572Z,1.00
2018-12-21T12:10:39.939Z,1.30
2018-12-21T12:13:09.160Z,1.10
2018-12-21T12:15:42.043Z,1.40
2018-12-21T12:18:15.272Z,1.20
2018-12-21T12:20:57.017Z,1.30
2018-12-21T12:23:36.020Z,0.90
2018-12-21T12:26:10.978Z,2.13
2018-12-21T12:28:49.733Z,1.03
2018-12-21T12:31:31.518Z,0.90
2018-12-21T12:34:11.378Z,1.20
2018-12-21T12:36:46.153Z,1.00
2018-12-21T12:39:21.740Z,1.33
2018-12-21T12:41:58.334Z,1.73
2018-12-21T12:44:36.372Z,1.67
2018-12-21T12:47:15.230Z,1.50
2018-12-21T12:49:54.653Z,1.30
2018-12-21T12:52:33.861Z,1.20
2018-12-21T12:55:09.160Z,1.60
2018-12-21T12:57:48.371Z,1.60
2018-12-21T13:00:23.495Z,1.00
2018-12-21T13:03:04.283Z,1.13
2018-12-21T13:05:43.789Z,1.20
2018-12-21T13:08:19.281Z,1.10
2018-12-21T13:10:53.893Z,1.73
2018-12-21T13:13:36.637Z,2.50
2018-12-21T13:16:15.663Z,1.30
2018-12-21T13:18:55.871Z,1.30
2018-12-21T13:21:31.747Z,0.80
2018-12-21T13:24:00.888Z,1.23
2018-12-21T13:26:53.570Z,1.13
2018-12-21T13:29:28.501Z,1.43
2018-12-21T13:32:07.575Z,1.30
2018-12-21T13:34:44.921Z,1.00
2018-12-21T13:37:20.083Z,1.90
2018-12-21T13:39:59.736Z,2.07
2018-12-21T13:42:34.735Z,1.57
2018-12-21T13:45:10.110Z,1.10
2018-12-21T13:47:48.819Z,1.13
2018-12-21T13:50:21.904Z,1.30
2018-12-21T13:53:01.475Z,0.93
2018-12-21T13:55:41.148Z,1.10
2018-12-21T13:58:13.900Z,1.30
2018-12-21T14:00:49.498Z,1.20
2018-12-21T14:03:20.145Z,1.13
2018-12-21T14:09:11.880Z,1.07
2018-12-21T14:11:48.273Z,1.17
2018-12-21T14:14:23.513Z,1.13
2018-12-21T14:17:02.309Z,1.13
2018-12-21T14:19:31.853Z,2.27
2018-12-21T14:22:25.281Z,1.77
2018-12-21T14:25:07.053Z,1.37
2018-12-21T14:27:41.814Z,1.40
2018-12-21T14:30:16.977Z,1.90
2018-12-21T14:32:54.566Z,1.37
2018-12-21T14:35:29.582Z,1.77
2018-12-21T14:38:05.024Z,1.13
2018-12-21T14:40:47.780Z,0.83
2018-12-21T14:43:23.256Z,0.90
2018-12-21T14:46:02.750Z,1.00
2018-12-21T14:48:44.898Z,1.00
2018-12-21T14:51:21.937Z,0.80
2018-12-21T14:54:01.508Z,1.20
2018-12-21T14:56:36.782Z,1.00
2018-12-21T14:59:12.177Z,1.10
2018-12-21T15:01:51.907Z,0.90
2018-12-21T15:04:30.864Z,0.83
2018-12-21T15:07:10.185Z,0.67
2018-12-21T15:09:53.057Z,1.20
2018-12-21T15:12:31.378Z,1.30
2018-12-21T15:15:08.897Z,1.10
2018-12-21T15:17:43.940Z,1.40
2018-12-21T15:20:19.145Z,1.33
2018-12-21T15:22:58.797Z,0.73
2018-12-21T15:25:45.885Z,1.00
2018-12-21T15:28:15.069Z,0.80
2018-12-21T15:30:50.284Z,0.80
2018-12-21T15:33:25.548Z,0.97
2018-12-21T15:36:05.149Z,0.70
2018-12-21T15:38:43.985Z,1.00
2018-12-21T15:41:16.911Z,0.70
2018-12-21T15:43:55.815Z,0.80
2018-12-21T15:46:35.022Z,0.60
2018-12-21T15:49:14.214Z,1.00
2018-12-21T15:51:49.599Z,0.80
2018-12-21T15:54:29.041Z,0.90
2018-12-21T15:57:08.217Z,0.80
2018-12-21T15:59:47.574Z,0.90
2018-12-21T16:02:22.865Z,0.73
2018-12-21T16:05:01.825Z,0.90
2018-12-21T16:07:37.114Z,0.90
2018-12-21T16:10:16.471Z,1.30
2018-12-21T16:12:51.776Z,0.67
2018-12-21T16:15:30.913Z,0.70
2018-12-21T16:18:10.045Z,0.90
2018-12-21T16:20:45.351Z,1.03
2018-12-21T16:23:22.749Z,1.20
2018-12-21T16:26:03.623Z,3.27
2018-12-21T16:28:39.230Z,3.67
2018-12-21T16:31:11.799Z,5.97
2018-12-21T16:33:46.505Z,4.23
2018-12-21T16:36:26.780Z,2.53
2018-12-21T16:39:01.816Z,2.70
2018-12-21T16:41:30.968Z,1.77
2018-12-21T16:44:07.525Z,1.20
2018-12-21T16:46:40.275Z,1.37
2018-12-21T16:49:19.738Z,1.10
2018-12-21T16:51:59.038Z,1.97
2018-12-21T16:54:32.195Z,1.17
2018-12-21T16:57:10.887Z,0.90
2018-12-21T16:59:50.091Z,0.80
2018-12-21T17:02:31.851Z,1.30
2018-12-21T17:05:10.437Z,1.33
2018-12-21T17:07:49.801Z,1.30
2018-12-21T17:10:28.917Z,1.83
2018-12-21T17:13:06.116Z,1.37
2018-12-21T17:15:45.214Z,2.10
2018-12-21T17:18:21.354Z,1.03
2018-12-21T17:20:57.974Z,1.87
2018-12-21T17:23:30.945Z,1.40
2018-12-21T17:26:09.604Z,1.07
2018-12-21T17:28:51.473Z,0.77
2018-12-21T17:31:28.906Z,1.03
2018-12-21T17:34:06.442Z,1.40
2018-12-21T17:36:45.207Z,1.10
2018-12-21T17:39:20.508Z,1.03
2018-12-21T17:41:59.623Z,1.00
2018-12-21T17:44:41.284Z,1.10
2018-12-21T17:47:13.855Z,0.83
2018-12-21T17:49:51.436Z,1.00
2018-12-21T17:52:25.541Z,1.30
2018-12-21T17:55:03.579Z,1.33
2018-12-21T17:57:40.390Z,1.20
2018-12-21T18:00:19.939Z,0.97
2018-12-21T18:02:55.549Z,0.87
2018-12-21T18:05:30.131Z,1.00
2018-12-21T18:08:05.542Z,1.10
2018-12-21T18:10:34.685Z,0.90
2018-12-21T18:13:12.129Z,0.80
2018-12-21T18:15:51.915Z,1.10
2018-12-21T18:20:54.072Z,1.13
2018-12-21T18:23:31.800Z,1.10
2018-12-21T18:26:10.922Z,0.90
2018-12-21T18:28:50.091Z,0.97
2018-12-21T18:31:27.754Z,1.07
2018-12-21T18:33:57.935Z,1.00
2018-12-21T18:36:35.323Z,1.00
2018-12-21T18:39:12.697Z,1.03
2018-12-21T18:41:54.355Z,1.10
2018-12-21T18:44:29.131Z,0.83
2018-12-21T18:47:06.287Z,0.70
2018-12-21T18:49:45.784Z,0.67
2018-12-21T18:52:21.449Z,0.90
2018-12-21T18:55:03.419Z,0.70
2018-12-21T18:57:38.791Z,0.87
2018-12-21T19:00:18.108Z,0.97
2018-12-21T19:02:51.218Z,1.03
2018-12-21T19:05:30.402Z,1.03
2018-12-21T19:08:05.492Z,0.70
2018-12-21T19:10:40.846Z,1.27
2018-12-21T19:13:16.252Z,1.03
2018-12-21T19:15:51.394Z,0.93
2018-12-21T19:18:28.694Z,0.90
2018-12-21T19:21:04.040Z,1.97
2018-12-21T19:23:39.085Z,0.90
2018-12-21T19:26:15.092Z,0.80
2018-12-21T19:28:52.474Z,0.90
2018-12-21T19:31:29.147Z,0.90
2018-12-21T19:33:59.879Z,1.00
2018-12-21T19:36:40.949Z,1.00
2018-12-21T19:39:16.050Z,0.70
2018-12-21T19:41:51.074Z,0.73
2018-12-21T19:44:27.669Z,0.90
2018-12-21T19:47:00.261Z,0.60
2018-12-21T19:49:35.834Z,0.73
2018-12-21T19:52:15.106Z,1.00
2018-12-21T19:54:52.456Z,1.13
2018-12-21T19:57:31.829Z,0.90
2018-12-21T20:00:07.782Z,0.80
2018-12-21T20:02:43.311Z,1.00
2018-12-21T20:05:22.565Z,0.93
2018-12-21T20:08:02.037Z,1.07
2018-12-21T20:10:40.039Z,1.10
2018-12-21T20:13:14.839Z,1.40
2018-12-21T20:15:53.992Z,1.20
2018-12-21T20:18:29.140Z,1.40
2018-12-21T20:21:10.944Z,1.80
2018-12-21T20:26:17.936Z,1.50
2018-12-21T20:28:53.518Z,1.30
2018-12-21T20:31:29.180Z,1.03
2018-12-21T20:34:04.052Z,1.17
2018-12-21T20:36:43.438Z,1.17
2018-12-21T20:39:20.084Z,0.90
2018-12-21T20:41:54.886Z,0.90
2018-12-21T20:44:30.163Z,1.03
2018-12-21T20:47:09.536Z,1.00
2018-12-21T20:49:44.547Z,0.97
2018-12-21T20:52:21.893Z,1.00
2018-12-21T20:54:58.188Z,0.90
2018-12-21T20:57:35.288Z,0.60
2018-12-21T21:00:15.278Z,0.80
2018-12-21T21:02:50.443Z,0.70
2018-12-21T21:05:25.577Z,0.93
2018-12-21T21:08:07.347Z,1.00
2018-12-21T21:10:42.359Z,0.70
2018-12-21T21:13:22.331Z,0.63
2018-12-21T21:15:57.419Z,0.93
2018-12-21T21:18:39.302Z,0.97
2018-12-21T21:21:19.068Z,1.17
2018-12-21T21:24:00.461Z,1.17
2018-12-21T21:26:33.046Z,1.20
2018-12-21T21:29:09.692Z,0.90
2018-12-21T21:31:46.120Z,0.90
2018-12-21T21:34:21.798Z,0.90
2018-12-21T21:36:57.142Z,0.63
2018-12-21T21:39:32.325Z,0.70
2018-12-21T21:42:08.776Z,1.10
2018-12-21T21:44:48.382Z,1.07
2018-12-21T21:47:24.063Z,1.20
2018-12-21T21:49:58.940Z,1.17
2018-12-21T21:52:36.375Z,1.10
2018-12-21T21:55:11.370Z,1.23
2018-12-21T21:57:51.767Z,1.03
2018-12-21T22:00:27.073Z,0.80
2018-12-21T22:03:02.562Z,1.07
2018-12-21T22:05:39.904Z,1.23
2018-12-21T22:08:15.314Z,0.70
2018-12-21T22:17:04.646Z,1.10
2018-12-21T22:19:39.472Z,1.17
2018-12-21T22:22:15.926Z,0.87
2018-12-21T22:24:51.066Z,1.07
2018-12-21T22:27:26.161Z,0.87
2018-12-21T22:30:01.428Z,1.10
2018-12-21T22:32:36.618Z,1.20
2018-12-21T22:35:12.654Z,1.33
2018-12-21T22:37:51.897Z,1.20
2018-12-21T22:40:27.936Z,0.80
2018-12-21T22:43:03.294Z,1.13
2018-12-21T22:45:38.680Z,0.90
2018-12-21T22:48:14.001Z,0.80
2018-12-21T22:50:46.996Z,0.80
2018-12-21T22:53:22.799Z,0.80
2018-12-21T22:55:58.447Z,0.77
2018-12-21T22:58:40.167Z,0.90
2018-12-21T23:01:15.064Z,0.70
2018-12-21T23:03:50.251Z,0.80
2018-12-21T23:06:25.627Z,0.77
2018-12-21T23:09:01.002Z,0.40
2018-12-21T23:11:39.443Z,0.70
2018-12-21T23:14:14.638Z,0.73
2018-12-21T23:16:50.333Z,0.80
2018-12-21T23:19:27.617Z,0.60
2018-12-21T23:22:02.817Z,0.70
2018-12-21T23:24:38.191Z,0.40
2018-12-21T23:27:13.354Z,0.63
2018-12-21T23:29:49.031Z,0.80
2018-12-21T23:32:23.902Z,0.83
2018-12-21T23:34:58.972Z,0.60
2018-12-21T23:37:34.428Z,0.67
2018-12-21T23:40:15.442Z,0.70
2018-12-21T23:42:57.705Z,0.70
2018-12-21T23:45:33.435Z,0.70
2018-12-21T23:48:08.793Z,0.60
2018-12-21T23:50:48.827Z,0.60
2018-12-21T23:53:28.089Z,0.53
2018-12-21T23:56:11.946Z,0.63
2018-12-21T23:58:46.635Z,0.60
